北九州空港の過去48時間の天気

北九州空港 (Kitakyushu)

現在時刻: 7/17 18:27 JST (7/17 09:27 UTC) 以下の時間は現地時間です。

過去48時間のMETAR気象情報
時間 風向 風速(m/s) 視程 気温(℃) 湿度(%) 気圧(hPa) 天気現象
17 18:00 北北西 4 10km以上 32 46 1010
17 17:00 不定 1 10km以上 32 46 1010
17 16:00 東南東 2 10km以上 31 59 1010
17 15:00 東南東 2 10km以上 31 59 1011
17 14:00 東南東 2 10km以上 31 59 1011
17 13:00 東南東 3 10km以上 31 59 1011
17 12:00 南東 3 10km以上 31 59 1012
17 11:00 東南東 2 10km以上 30 62 1012
17 10:00 不定 2 10km以上 29 66 1012
17 09:00 不定 1 10km以上 28 70 1013
17 08:00 北北東 2 10km以上 27 74 1013
17 07:00 不定 1 10km以上 27 70 1013
17 06:00 2 10km以上 25 78 1013
17 05:00 北北西 1 10km以上 25 74 1012
17 04:00 1 10km以上 25 74 1012
17 03:00 2 10km以上 25 74 1012
17 02:00 北北西 2 10km以上 26 70 1012
17 01:00 3 10km以上 26 70 1012
17 00:00 北北東 3 10km以上 27 66 1012
16 23:00 3 10km以上 27 66 1012
16 22:00 2 10km以上 28 58 1012
16 21:00 不定 1 10km以上 29 55 1012
16 20:00 北西 2 10km以上 29 55 1012
16 19:00 北西 3 10km以上 30 52 1011
16 18:00 北北東 2 10km以上 30 55 1011
16 17:00 2 10km以上 30 62 1011
16 16:00 不定 2 10km以上 30 62 1011
16 15:00 不定 2 10km以上 30 62 1011
16 14:00 東南東 2 8000m 30 62 1012
16 13:00 不定 2 8000m 29 66 1012
16 12:00 3 7000m 29 66 1013
16 11:00 4 7000m 29 66 1013
16 10:00 東北東 4 7000m 28 70 1013
16 09:00 3 7000m 28 70 1013
16 08:38 4 7000m 27 74 1013
16 08:00 4 7000m 27 70 1013
16 07:00 3 8000m 26 74 1013
16 06:36 3 8000m 26 74 1012
16 06:00 北北西 3 7000m 26 74 1012
16 05:00 東北東 5 7000m 26 79 1012
16 04:00 3 10km以上 26 74 1012
16 03:00 3 10km以上 26 74 1011
16 02:00 北北東 2 10km以上 27 70 1012
16 01:00 1 10km以上 26 74 1011
16 00:00 北北西 2 10km以上 26 74 1012
15 23:00 北西 2 10km以上 28 66 1012
15 22:00 北西 2 10km以上 28 66 1012
15 21:00 2 10km以上 28 70 1011
15 20:00 北北東 2 10km以上 28 74 1011
15 19:00 不定 1 10km以上 29 62 1010
RJFR 170900Z 33008KT CAVOK 32/19 Q1010
RJFR 170800Z VRB02KT CAVOK 32/19 Q1010
RJFR 170700Z 12003KT 090V180 9999 FEW030 31/22 Q1010
RJFR 170600Z 11003KT 020V190 9999 FEW030 31/22 Q1011
RJFR 170500Z 11003KT 060V160 9999 FEW030 31/22 Q1011
RJFR 170400Z 12005KT 080V160 9999 FEW020 31/22 Q1011
RJFR 170300Z 13006KT 9999 FEW020 31/22 Q1012
RJFR 170200Z 11004KT 060V200 9999 FEW020 30/22 Q1012
RJFR 170100Z VRB03KT 9999 FEW020 29/22 Q1012
RJFR 170000Z VRB02KT 9999 FEW020 28/22 Q1013
RJFR 162300Z 03003KT 9999 FEW015 27/22 Q1013
RJFR 162200Z VRB02KT 9999 FEW020 27/21 Q1013
RJFR 162100Z 36004KT 9999 FEW025 25/21 Q1013
RJFR 162000Z 34002KT 9999 FEW030 25/20 Q1012
RJFR 161900Z 35002KT 9999 FEW030 25/20 Q1012
RJFR 161800Z 35003KT 9999 FEW030 25/20 Q1012
RJFR 161700Z 34004KT CAVOK 26/20 Q1012
RJFR 161600Z 35005KT CAVOK 26/20 Q1012
RJFR 161500Z 02005KT CAVOK 27/20 Q1012
RJFR 161400Z 35005KT CAVOK 27/20 Q1012
RJFR 161300Z 35003KT CAVOK 28/19 Q1012
RJFR 161200Z VRB02KT CAVOK 29/19 Q1012
RJFR 161100Z 31004KT 9999 FEW030 29/19 Q1012
RJFR 161000Z 31006KT 9999 FEW030 30/19 Q1011
RJFR 160900Z 02003KT 340V080 9999 FEW030 30/20 Q1011
RJFR 160800Z 08003KT 020V200 CAVOK 30/22 Q1011
RJFR 160700Z VRB03KT 9999 FEW040 30/22 Q1011
RJFR 160600Z VRB03KT 9999 FEW035 30/22 Q1011
RJFR 160500Z 11003KT 030V170 8000 FEW030 30/22 Q1012
RJFR 160400Z VRB04KT 8000 FEW025 29/22 Q1012
RJFR 160300Z VRB05KT 7000 FEW020 29/22 Q1013
RJFR 160200Z 08007KT 060V120 7000 FEW020 SCT/// 29/22 Q1013
RJFR 160100Z 07007KT 7000 FEW010 28/22 Q1013
RJFR 160000Z 01006KT 7000 FEW005 BKN010 28/22 Q1013
RJFR 152338Z 36007KT 7000 FEW005 SCT007 BKN010 27/22 Q1013 RMK 1ST005 4ST007 7ST010 A2993
RJFR 152300Z 35007KT 7000 FEW005 BKN007 BKN010 27/21 Q1013
RJFR 152200Z 01006KT 8000 FEW006 BKN008 26/21 Q1013
RJFR 152136Z 36006KT 8000 FEW006 BKN008 26/21 Q1012 RMK 2ST006 5ST008 A2991
RJFR 152100Z 34005KT 7000 FEW006 26/21 Q1012
RJFR 152000Z 06009KT 7000 FEW006 SCT008 BKN010 26/22 Q1012
RJFR 151900Z 35005KT 9999 FEW030 BKN060 26/21 Q1012
RJFR 151800Z 36006KT 9999 FEW030 26/21 Q1011
RJFR 151700Z 02003KT 350V130 9999 FEW030 27/21 Q1012
RJFR 151600Z 35002KT 9999 FEW030 26/21 Q1011
RJFR 151500Z 34004KT 9999 FEW030 26/21 Q1012
RJFR 151400Z 31003KT 9999 FEW030 28/21 Q1012
RJFR 151300Z 31004KT 9999 FEW030 28/21 Q1012
RJFR 151200Z 01003KT 9999 FEW030 28/22 Q1011
RJFR 151100Z 02003KT 350V050 9999 FEW030 28/23 Q1011
RJFR 151000Z VRB02KT CAVOK 29/21 Q1010